Share

Lake Leake, Tasmania

Launceston (YMLT) Elev 561 ft | 41.55 °S, 147.21 °E | Change Station

Current weather conditions updated 34 minutes ago

Clear
Clear
61 °F
Feels Like 61 °F
N
13
Wind Variable Wind from WSW
Sunrise 6:42 AM
Sunset 5:33 PM
Moon Waning Gibbous

Tomorrow is forecast to be Cooler than today.

Pressure 29.80 in
Visibility 6.2 miles
Clouds
Dew Point 37 °F
Humidity 42%
Rainfall 0.00 in
Snow Depth Not available.
UV Not available.
Pollen Not available.
Air Quality Not available.
Flu Activity Not available.
METAR YMLT 180530Z AUTO 24011KT 9999 // NCD 16/03 Q1009

More Conditions Fewer Conditions

Pressure 29.80 in
Visibility 6.2 miles
Clouds
Dew Point 37 °F
Humidity 42%
Rainfall 0.00 in
Snow Depth Not available.
UV Not available.
Pollen Not available.
Air Quality Not available.
Flu Activity Not available.
METAR YMLT 180530Z AUTO 24011KT 9999 // NCD 16/03 Q1009

More Conditions Fewer Conditions

10-Day Forecast

Almanac

Astronomy

Apr. 18, 2014 Rise Set
Actual Time 6:42 AM EST 5:33 PM EST
Civil Twilight 6:14 AM EST 6:01 PM EST
Nautical Twilight 5:41 AM EST 6:34 PM EST
Astronomical Twilight 5:09 AM EST 7:06 PM EST
Moon 7:37 PM EST 9:28 AM EST
Length of Visible Light 11h 47m
Length of Day
10h 50m
Tomorrow will be 2m 36s shorter.
Waning Gibbous, 90% of the Moon is Illuminated
Today
Waning Gibbous
Apr 22
Last Quarter
Apr 29
New
May 6
First Quarter
May 14
Full

Yesterday's Extremes

Country Highs Country Lows

Community

  • SUNRISE THROUGH THE TREES.
    SUNRISE THROUGH THE TREES.
  • Dog Wood Blossoms
    Dog Wood Blossoms
  • Morning Light
    Morning Light
  • New Day
    New Day
  • Lake Michigan Sunrise
    Lake Michigan Sunrise

WunderPhotos

Upload Photos

1,702,276 photos uploaded!

WunderBlogs® & News

Nearby

Snow Depth

Not available.

Coastal Water Temperatures

Place Temperature
No Stations Reporting

Earthquake Activity

City Distance Mag. Time & Date
No recent earthquake activity has been reported nearby.
Minimum magnitude displayed is 2.5.

Nearby Weather Stations

There are no personal weather stations in this area.

What do you think?

We're not finished. Please let us know what you like, what you don't like, and what you are still missing.